Time,TemperatureF,DewpointF,PressureIn,WindDirection,WindDirectionDegrees,WindSpeedMPH,WindSpeedGustMPH,Humidity,HourlyPrecipIn,Conditions,Clouds,dailyrainin,SoftwareType,DateUTC
2013-03-05 00:00:00,40.0,27.6,29.86,East,90,0.0,8.0,61,0.00,,,-99.99,Weather View 32 v60,2013-03-05 05:00:00,
2013-03-05 00:05:00,40.0,27.6,29.86,East,90,0.0,8.0,61,0.00,,,-99.99,Weather View 32 v60,2013-03-05 05:05:00,
2013-03-05 00:10:00,40.0,27.2,29.86,East,90,3.0,8.0,60,0.00,,,-99.99,Weather View 32 v60,2013-03-05 05:10:00,
2013-03-05 00:15:00,40.0,27.6,29.86,East,90,3.0,8.0,61,0.00,,,-99.99,Weather View 32 v60,2013-03-05 05:15:00,
2013-03-05 00:20:00,40.0,27.6,29.86,East,90,3.0,8.0,61,0.00,,,-99.99,Weather View 32 v60,2013-03-05 05:20:00,
2013-03-05 00:25:00,40.0,27.6,29.86,East,90,0.0,6.0,61,0.00,,,-99.99,Weather View 32 v60,2013-03-05 05:25:00,
2013-03-05 00:30:00,40.0,27.6,29.86,East,90,0.0,6.0,61,0.00,,,-99.99,Weather View 32 v60,2013-03-05 05:30:00,
2013-03-05 00:35:00,40.0,27.6,29.86,ENE,67,3.0,6.0,61,0.00,,,-99.99,Weather View 32 v60,2013-03-05 05:35:00,
2013-03-05 00:40:00,40.0,28.0,29.86,East,90,0.0,6.0,62,0.00,,,-99.99,Weather View 32 v60,2013-03-05 05:40:00,
2013-03-05 00:45:00,40.0,27.6,29.86,East,90,3.0,6.0,61,0.00,,,-99.99,Weather View 32 v60,2013-03-05 05:45:00,
2013-03-05 00:50:00,40.0,27.6,29.85,East,90,2.0,6.0,61,0.00,,,-99.99,Weather View 32 v60,2013-03-05 05:50:00,
2013-03-05 00:55:00,40.0,28.0,29.85,East,90,3.0,6.0,62,0.00,,,-99.99,Weather View 32 v60,2013-03-05 05:55:00,
2013-03-05 01:00:00,40.0,28.0,29.85,East,90,3.0,6.0,62,0.00,,,-99.99,Weather View 32 v60,2013-03-05 06:00:00,
2013-03-05 01:05:00,40.0,28.4,29.85,East,90,2.0,6.0,63,0.00,,,-99.99,Weather View 32 v60,2013-03-05 06:05:00,
2013-03-05 01:10:00,40.0,28.4,29.85,East,90,3.0,6.0,63,0.00,,,-99.99,Weather View 32 v60,2013-03-05 06:10:00,
2013-03-05 01:15:00,40.0,28.4,29.85,East,90,0.0,6.0,63,0.00,,,-99.99,Weather View 32 v60,2013-03-05 06:15:00,
2013-03-05 01:25:00,40.0,28.4,29.84,East,90,2.0,5.0,63,0.00,,,-99.99,Weather View 32 v60,2013-03-05 06:25:00,
2013-03-05 01:35:00,40.0,28.0,29.84,ENE,67,4.0,5.0,62,0.00,,,-99.99,Weather View 32 v60,2013-03-05 06:35:00,
2013-03-05 01:40:00,40.0,28.8,29.84,East,90,3.0,5.0,64,0.00,,,-99.99,Weather View 32 v60,2013-03-05 06:40:00,
2013-03-05 01:45:00,40.0,28.8,29.84,ENE,67,4.0,5.0,64,0.00,,,-99.99,Weather View 32 v60,2013-03-05 06:45:00,
2013-03-05 01:50:00,40.0,29.2,29.83,ENE,67,3.0,5.0,65,0.00,,,-99.99,Weather View 32 v60,2013-03-05 06:50:00,
2013-03-05 01:55:00,40.0,28.8,29.83,ENE,67,5.0,5.0,64,0.00,,,-99.99,Weather View 32 v60,2013-03-05 06:55:00,
2013-03-05 02:00:00,40.0,29.2,29.83,East,90,5.0,5.0,65,0.00,,,-99.99,Weather View 32 v60,2013-03-05 07:00:00,
2013-03-05 02:05:00,40.0,29.2,29.83,East,90,5.0,6.0,65,0.00,,,-99.99,Weather View 32 v60,2013-03-05 07:05:00,
2013-03-05 02:10:00,40.0,29.2,29.82,East,90,3.0,6.0,65,0.00,,,-99.99,Weather View 32 v60,2013-03-05 07:10:00,
2013-03-05 02:15:00,40.0,28.8,29.82,East,90,3.0,7.0,64,0.00,,,-99.99,Weather View 32 v60,2013-03-05 07:15:00,
2013-03-05 02:20:00,40.0,29.2,29.82,ENE,67,1.0,7.0,65,0.00,,,-99.99,Weather View 32 v60,2013-03-05 07:20:00,
2013-03-05 02:25:00,40.0,28.8,29.82,East,90,1.0,7.0,64,0.00,,,-99.99,Weather View 32 v60,2013-03-05 07:25:00,
2013-03-05 02:30:00,40.0,29.2,29.82,East,90,2.0,7.0,65,0.00,,,-99.99,Weather View 32 v60,2013-03-05 07:30:00,
2013-03-05 02:40:00,40.0,29.2,29.81,East,90,2.0,7.0,65,0.00,,,-99.99,Weather View 32 v60,2013-03-05 07:40:00,
2013-03-05 02:45:00,40.0,29.2,29.81,NE,45,5.0,7.0,65,0.00,,,-99.99,Weather View 32 v60,2013-03-05 07:45:00,
2013-03-05 02:50:00,40.0,29.5,29.81,NE,45,4.0,7.0,66,0.00,,,-99.99,Weather View 32 v60,2013-03-05 07:50:00,
2013-03-05 02:55:00,40.0,29.5,29.80,ENE,67,2.0,7.0,66,0.00,,,-99.99,Weather View 32 v60,2013-03-05 07:55:00,
2013-03-05 03:00:00,40.0,29.5,29.80,ENE,67,3.0,7.0,66,0.00,,,-99.99,Weather View 32 v60,2013-03-05 08:00:00,
2013-03-05 03:05:00,40.0,29.2,29.80,East,90,4.0,7.0,65,0.00,,,-99.99,Weather View 32 v60,2013-03-05 08:05:00,
2013-03-05 03:10:00,40.0,29.5,29.80,ENE,67,4.0,7.0,66,0.00,,,-99.99,Weather View 32 v60,2013-03-05 08:10:00,
2013-03-05 03:15:00,40.0,29.2,29.80,ENE,67,5.0,6.0,65,0.00,,,-99.99,Weather View 32 v60,2013-03-05 08:15:00,
2013-03-05 03:20:00,40.0,29.5,29.80,ENE,67,4.0,6.0,66,0.00,,,-99.99,Weather View 32 v60,2013-03-05 08:20:00,
2013-03-05 03:25:00,40.0,29.2,29.80,East,90,3.0,6.0,65,0.00,,,-99.99,Weather View 32 v60,2013-03-05 08:25:00,
2013-03-05 03:30:00,40.0,29.2,29.80,ENE,67,4.0,6.0,65,0.00,,,-99.99,Weather View 32 v60,2013-03-05 08:30:00,
2013-03-05 03:35:00,40.0,29.5,29.80,East,90,0.0,6.0,66,0.00,,,-99.99,Weather View 32 v60,2013-03-05 08:35:00,
2013-03-05 03:40:00,40.0,28.8,29.80,ENE,67,4.0,6.0,64,0.00,,,-99.99,Weather View 32 v60,2013-03-05 08:40:00,
2013-03-05 03:45:00,41.0,30.5,29.80,NE,45,4.0,6.0,66,0.00,,,-99.99,Weather View 32 v60,2013-03-05 08:45:00,
2013-03-05 03:50:00,40.0,29.2,29.80,ENE,67,0.0,6.0,65,0.00,,,-99.99,Weather View 32 v60,2013-03-05 08:50:00,
2013-03-05 03:55:00,40.0,29.2,29.80,ENE,67,3.0,6.0,65,0.00,,,-99.99,Weather View 32 v60,2013-03-05 08:55:00,
2013-03-05 04:00:00,40.0,29.5,29.80,NE,45,3.0,6.0,66,0.00,,,-99.99,Weather View 32 v60,2013-03-05 09:00:00,
2013-03-05 04:05:00,41.0,30.5,29.81,ENE,67,0.0,6.0,66,0.00,,,-99.99,Weather View 32 v60,2013-03-05 09:05:00,
2013-03-05 04:10:00,40.0,29.9,29.81,ENE,67,0.0,6.0,67,0.00,,,-99.99,Weather View 32 v60,2013-03-05 09:10:00,
2013-03-05 04:15:00,41.0,30.5,29.81,ENE,67,4.0,6.0,66,0.00,,,-99.99,Weather View 32 v60,2013-03-05 09:15:00,
2013-03-05 04:20:00,40.0,30.3,29.81,East,90,5.0,6.0,68,0.00,,,-99.99,Weather View 32 v60,2013-03-05 09:20:00,
2013-03-05 04:25:00,40.0,31.3,29.82,NE,45,0.0,6.0,71,0.00,,,-99.99,Weather View 32 v60,2013-03-05 09:25:00,
2013-03-05 04:30:00,40.0,33.7,29.82,NE,45,3.0,5.0,78,0.00,,,-99.99,Weather View 32 v60,2013-03-05 09:30:00,
2013-03-05 04:40:00,38.0,35.3,29.82,ENE,67,0.0,5.0,90,0.00,,,-99.99,Weather View 32 v60,2013-03-05 09:40:00,
2013-03-05 04:45:00,38.0,36.2,29.82,ENE,67,0.0,5.0,93,0.00,,,-99.99,Weather View 32 v60,2013-03-05 09:45:00,
2013-03-05 04:50:00,37.0,35.4,29.82,ENE,67,0.0,5.0,94,0.00,,,-99.99,Weather View 32 v60,2013-03-05 09:50:00,
2013-03-05 04:55:00,37.0,37.0,29.83,ENE,67,0.0,5.0,100,0.00,,,-99.99,Weather View 32 v60,2013-03-05 09:55:00,
2013-03-05 05:00:00,37.0,37.0,29.83,ENE,67,0.0,5.0,100,0.00,,,-99.99,Weather View 32 v60,2013-03-05 10:00:00,
2013-03-05 05:10:00,37.0,37.0,29.82,NE,45,0.0,5.0,100,0.00,,,-99.99,Weather View 32 v60,2013-03-05 10:10:00,
2013-03-05 05:20:00,37.0,37.0,29.82,ENE,67,0.0,5.0,100,0.00,,,-99.99,Weather View 32 v60,2013-03-05 10:20:00,
2013-03-05 05:30:00,37.0,37.0,29.83,ENE,67,0.0,3.0,100,0.00,,,-99.99,Weather View 32 v60,2013-03-05 10:30:00,
2013-03-05 05:32:00,40.0,33.7,29.82,NE,45,3.0,5.0,78,0.00,,,-99.99,Weather View 32 v60,2013-03-05 10:32:00,
2013-03-05 05:50:00,36.0,36.0,29.82,East,90,0.0,5.0,100,0.00,,,-99.99,Weather View 32 v60,2013-03-05 10:50:00,
2013-03-05 06:05:00,36.0,36.0,29.81,East,90,6.0,7.0,100,0.00,,,-99.99,Weather View 32 v60,2013-03-05 11:05:00,
2013-03-05 06:10:00,36.0,36.0,29.80,East,90,4.0,7.0,100,0.00,,,-99.99,Weather View 32 v60,2013-03-05 11:10:00,
2013-03-05 06:14:00,37.0,37.0,29.82,NE,45,0.0,5.0,100,0.00,,,-99.99,Weather View 32 v60,2013-03-05 11:14:00,
2013-03-05 06:15:00,36.0,36.0,29.80,East,90,3.0,7.0,100,0.00,,,-99.99,Weather View 32 v60,2013-03-05 11:15:00,
2013-03-05 06:20:00,36.0,36.0,29.80,East,90,2.0,7.0,100,0.00,,,-99.99,Weather View 32 v60,2013-03-05 11:20:00,
2013-03-05 06:34:00,37.0,37.0,29.83,East,90,0.0,3.0,100,0.00,,,-99.99,Weather View 32 v60,2013-03-05 11:34:00,
2013-03-05 06:39:00,37.0,37.0,29.83,East,90,3.0,4.0,100,0.00,,,-99.99,Weather View 32 v60,2013-03-05 11:39:00,
2013-03-05 06:40:00,36.0,36.0,29.80,East,90,2.0,7.0,100,0.00,,,-99.99,Weather View 32 v60,2013-03-05 11:40:00,
2013-03-05 06:44:00,37.0,37.0,29.82,East,90,2.0,4.0,100,0.00,,,-99.99,Weather View 32 v60,2013-03-05 11:44:00,
2013-03-05 06:59:00,36.0,36.0,29.81,East,90,3.0,5.0,100,0.00,,,-99.99,Weather View 32 v60,2013-03-05 11:59:00,
2013-03-05 07:15:00,36.0,36.0,29.81,East,90,4.0,6.0,100,0.00,,,-99.99,Weather View 32 v60,2013-03-05 12:15:00,
2013-03-05 07:29:00,36.0,36.0,29.81,East,90,1.0,7.0,100,0.00,,,-99.99,Weather View 32 v60,2013-03-05 12:29:00,
2013-03-05 07:34:00,36.0,36.0,29.81,East,90,0.0,7.0,100,0.00,,,-99.99,Weather View 32 v60,2013-03-05 12:34:00,
2013-03-05 07:44:00,36.0,36.0,29.79,East,90,2.0,7.0,100,0.00,,,-99.99,Weather View 32 v60,2013-03-05 12:44:00,
2013-03-05 07:49:00,36.0,36.0,29.79,East,90,0.0,7.0,100,0.00,,,-99.99,Weather View 32 v60,2013-03-05 12:49:00,
2013-03-05 07:54:00,36.0,36.0,29.79,East,90,3.0,7.0,100,0.00,,,-99.99,Weather View 32 v60,2013-03-05 12:54:00,
2013-03-05 08:04:00,36.0,36.0,29.81,East,90,1.0,7.0,100,0.00,,,-99.99,Weather View 32 v60,2013-03-05 13:04:00,
2013-03-05 08:09:00,36.0,36.0,29.81,East,90,3.0,6.0,100,0.00,,,-99.99,Weather View 32 v60,2013-03-05 13:09:00,
2013-03-05 08:19:00,36.0,36.0,29.80,East,90,4.0,6.0,100,0.00,,,-99.99,Weather View 32 v60,2013-03-05 13:19:00,
2013-03-05 08:29:00,37.0,37.0,29.78,East,90,0.0,6.0,100,0.00,,,-99.99,Weather View 32 v60,2013-03-05 13:29:00,
2013-03-05 08:34:00,37.0,37.0,29.78,East,90,1.0,6.0,100,0.00,,,-99.99,Weather View 32 v60,2013-03-05 13:34:00,
2013-03-05 08:39:00,37.0,37.0,29.79,East,90,4.0,6.0,100,0.00,,,-99.99,Weather View 32 v60,2013-03-05 13:39:00,
2013-03-05 08:49:00,37.0,37.0,29.78,East,90,3.0,6.0,100,0.00,,,-99.99,Weather View 32 v60,2013-03-05 13:49:00,
2013-03-05 09:04:00,38.0,38.0,29.78,East,90,4.0,6.0,100,0.00,,,-99.99,Weather View 32 v60,2013-03-05 14:04:00,
2013-03-05 09:09:00,38.0,38.0,29.77,East,90,3.0,6.0,100,0.00,,,-99.99,Weather View 32 v60,2013-03-05 14:09:00,
2013-03-05 09:19:00,38.0,38.0,29.77,East,90,4.0,6.0,100,0.00,,,-99.99,Weather View 32 v60,2013-03-05 14:19:00,
2013-03-05 09:29:00,38.0,38.0,29.77,East,90,3.0,6.0,100,0.00,,,-99.99,Weather View 32 v60,2013-03-05 14:29:00,
2013-03-05 09:34:00,38.0,38.0,29.77,East,90,2.0,6.0,100,0.00,,,-99.99,Weather View 32 v60,2013-03-05 14:34:00,
2013-03-05 09:44:00,38.0,38.0,29.77,East,90,3.0,6.0,100,0.00,,,-99.99,Weather View 32 v60,2013-03-05 14:44:00,
2013-03-05 09:49:00,38.0,38.0,29.76,East,90,3.0,6.0,100,0.00,,,-99.99,Weather View 32 v60,2013-03-05 14:49:00,
2013-03-05 09:54:00,38.0,38.0,29.76,East,90,4.0,7.0,100,0.00,,,-99.99,Weather View 32 v60,2013-03-05 14:54:00,
2013-03-05 10:04:00,38.0,38.0,29.76,East,90,3.0,7.0,100,0.00,,,-99.99,Weather View 32 v60,2013-03-05 15:04:00,
2013-03-05 10:09:00,38.0,38.0,29.75,East,90,6.0,7.0,100,0.00,,,-99.99,Weather View 32 v60,2013-03-05 15:09:00,
2013-03-05 10:14:00,39.0,39.0,29.75,East,90,3.0,7.0,100,0.00,,,-99.99,Weather View 32 v60,2013-03-05 15:14:00,
2013-03-05 10:19:00,39.0,39.0,29.74,East,90,3.0,7.0,100,0.00,,,-99.99,Weather View 32 v60,2013-03-05 15:19:00,
2013-03-05 10:29:00,39.0,39.0,29.74,East,90,1.0,7.0,100,0.00,,,-99.99,Weather View 32 v60,2013-03-05 15:29:00,
2013-03-05 10:36:00,39.0,39.0,29.73,East,90,1.0,8.0,100,0.00,,,-99.99,Weather View 32 v60,2013-03-05 15:36:00,
2013-03-05 10:44:00,39.0,39.0,29.73,East,90,4.0,8.0,100,0.00,,,-99.99,Weather View 32 v60,2013-03-05 15:44:00,
2013-03-05 10:54:00,40.0,40.0,29.72,East,90,3.0,8.0,100,0.00,,,-99.99,Weather View 32 v60,2013-03-05 15:54:00,
2013-03-05 10:59:00,40.0,40.0,29.72,East,90,4.0,8.0,100,0.00,,,-99.99,Weather View 32 v60,2013-03-05 15:59:00,
2013-03-05 11:09:00,40.0,40.0,29.70,East,90,4.0,8.0,100,0.00,,,-99.99,Weather View 32 v60,2013-03-05 16:09:00,
2013-03-05 11:19:00,40.0,40.0,29.70,East,90,5.0,8.0,100,0.00,,,-99.99,Weather View 32 v60,2013-03-05 16:19:00,
2013-03-05 11:29:00,41.0,41.0,29.69,East,90,4.0,8.0,100,0.00,,,-99.99,Weather View 32 v60,2013-03-05 16:29:00,
2013-03-05 11:36:00,41.0,41.0,29.68,East,90,5.0,8.0,100,0.00,,,-99.99,Weather View 32 v60,2013-03-05 16:36:00,
2013-03-05 11:44:00,41.0,41.0,29.68,East,90,3.0,8.0,100,0.00,,,-99.99,Weather View 32 v60,2013-03-05 16:44:00,
2013-03-05 11:54:00,41.0,41.0,29.66,East,90,5.0,8.0,100,0.00,,,-99.99,Weather View 32 v60,2013-03-05 16:54:00,
2013-03-05 11:59:00,42.0,42.0,29.66,East,90,9.0,9.0,100,0.00,,,-99.99,Weather View 32 v60,2013-03-05 16:59:00,
2013-03-05 12:09:00,42.0,42.0,29.65,East,90,4.0,9.0,100,0.00,,,-99.99,Weather View 32 v60,2013-03-05 17:09:00,
2013-03-05 12:19:00,42.0,42.0,29.64,East,90,9.0,9.0,100,0.00,,,-99.99,Weather View 32 v60,2013-03-05 17:19:00,
2013-03-05 12:24:00,42.0,42.0,29.64,East,90,6.0,9.0,100,0.00,,,-99.99,Weather View 32 v60,2013-03-05 17:24:00,
2013-03-05 12:29:00,42.0,42.0,29.64,East,90,5.0,9.0,100,0.00,,,-99.99,Weather View 32 v60,2013-03-05 17:29:00,
2013-03-05 12:34:00,42.0,42.0,29.64,East,90,4.0,9.0,100,0.00,,,-99.99,Weather View 32 v60,2013-03-05 17:34:00,
2013-03-05 12:39:00,42.0,42.0,29.63,East,90,5.0,9.0,100,0.00,,,-99.99,Weather View 32 v60,2013-03-05 17:39:00,
2013-03-05 12:49:00,43.0,43.0,29.63,East,90,4.0,9.0,100,0.00,,,-99.99,Weather View 32 v60,2013-03-05 17:49:00,
2013-03-05 12:54:00,43.0,43.0,29.62,East,90,5.0,9.0,100,0.00,,,-99.99,Weather View 32 v60,2013-03-05 17:54:00,
2013-03-05 13:04:00,43.0,43.0,29.62,East,90,7.0,9.0,100,0.00,,,-99.99,Weather View 32 v60,2013-03-05 18:04:00,
2013-03-05 13:14:00,43.0,43.0,29.62,East,90,0.0,9.0,100,0.00,,,-99.99,Weather View 32 v60,2013-03-05 18:14:00,
2013-03-05 13:19:00,43.0,43.0,29.61,East,90,3.0,9.0,100,0.00,,,-99.99,Weather View 32 v60,2013-03-05 18:19:00,
2013-03-05 13:34:00,44.0,44.0,29.60,East,90,1.0,8.0,100,0.00,,,-99.99,Weather View 32 v60,2013-03-05 18:34:00,
2013-03-05 13:44:00,44.0,44.0,29.59,East,90,2.0,8.0,100,0.00,,,-99.99,Weather View 32 v60,2013-03-05 18:44:00,
2013-03-05 13:49:00,44.0,44.0,29.58,East,90,4.0,8.0,100,0.00,,,-99.99,Weather View 32 v60,2013-03-05 18:49:00,
2013-03-05 13:59:00,44.0,44.0,29.57,East,90,0.0,8.0,100,0.00,,,-99.99,Weather View 32 v60,2013-03-05 18:59:00,
2013-03-05 14:19:00,45.0,45.0,29.55,East,90,4.0,6.0,100,0.01,,,-99.99,Weather View 32 v60,2013-03-05 19:19:00,
2013-03-05 14:29:00,45.0,45.0,29.54,East,90,0.0,6.0,100,0.00,,,-99.99,Weather View 32 v60,2013-03-05 19:29:00,
2013-03-05 14:38:00,45.0,45.0,29.54,East,90,0.0,6.0,100,0.01,,,-99.99,Weather View 32 v60,2013-03-05 19:38:00,
2013-03-05 14:44:00,45.0,45.0,29.52,East,90,0.0,6.0,100,0.01,,,-99.99,Weather View 32 v60,2013-03-05 19:44:00,
2013-03-05 14:49:00,45.0,45.0,29.52,East,90,0.0,6.0,100,0.01,,,-99.99,Weather View 32 v60,2013-03-05 19:49:00,
2013-03-05 14:59:00,45.0,45.0,29.52,ENE,67,0.0,6.0,100,0.01,,,-99.99,Weather View 32 v60,2013-03-05 19:59:00,
2013-03-05 15:04:00,45.0,45.0,29.51,ENE,67,0.0,6.0,100,0.01,,,-99.99,Weather View 32 v60,2013-03-05 20:04:00,
2013-03-05 15:14:00,45.0,45.0,29.51,East,90,0.0,6.0,100,0.00,,,-99.99,Weather View 32 v60,2013-03-05 20:14:00,
2013-03-05 15:19:00,45.0,45.0,29.51,ENE,67,0.0,5.0,100,0.00,,,-99.99,Weather View 32 v60,2013-03-05 20:19:00,
2013-03-05 15:29:00,45.0,45.0,29.51,ENE,67,0.0,4.0,100,0.00,,,-99.99,Weather View 32 v60,2013-03-05 20:29:00,
2013-03-05 15:39:00,45.0,45.0,29.50,East,90,0.0,4.0,100,0.00,,,-99.99,Weather View 32 v60,2013-03-05 20:39:00,
2013-03-05 15:44:00,45.0,45.0,29.50,East,90,0.0,4.0,100,0.00,,,-99.99,Weather View 32 v60,2013-03-05 20:44:00,
2013-03-05 15:49:00,45.0,45.0,29.50,NE,45,0.0,4.0,100,0.00,,,-99.99,Weather View 32 v60,2013-03-05 20:49:00,
2013-03-05 15:59:00,45.0,45.0,29.48,East,90,0.0,0.0,100,0.00,,,-99.99,Weather View 32 v60,2013-03-05 20:59:00,
2013-03-05 16:09:00,45.0,45.0,29.48,East,90,0.0,0.0,100,0.00,,,-99.99,Weather View 32 v60,2013-03-05 21:09:00,
2013-03-05 16:14:00,45.0,45.0,29.48,East,90,0.0,0.0,100,0.00,,,-99.99,Weather View 32 v60,2013-03-05 21:14:00,
2013-03-05 16:19:00,45.0,45.0,29.48,East,90,0.0,0.0,100,0.00,,,-99.99,Weather View 32 v60,2013-03-05 21:19:00,
2013-03-05 16:29:00,45.0,45.0,29.48,East,90,0.0,0.0,100,0.00,,,-99.99,Weather View 32 v60,2013-03-05 21:29:00,
2013-03-05 16:39:00,45.0,45.0,29.48,East,90,0.0,0.0,100,0.00,,,-99.99,Weather View 32 v60,2013-03-05 21:39:00,
2013-03-05 16:49:00,45.0,45.0,29.47,East,90,0.0,0.0,100,0.00,,,-99.99,Weather View 32 v60,2013-03-05 21:49:00,
2013-03-05 16:59:00,45.0,45.0,29.47,East,90,0.0,0.0,100,0.00,,,-99.99,Weather View 32 v60,2013-03-05 21:59:00,
2013-03-05 17:04:00,45.0,45.0,29.47,East,90,0.0,0.0,100,0.00,,,-99.99,Weather View 32 v60,2013-03-05 22:04:00,
2013-03-05 17:14:00,45.0,45.0,29.47,SW,225,0.0,0.0,100,0.00,,,-99.99,Weather View 32 v60,2013-03-05 22:14:00,
2013-03-05 17:19:00,45.0,45.0,29.47,SW,225,0.0,0.0,100,0.01,,,-99.99,Weather View 32 v60,2013-03-05 22:19:00,
2013-03-05 17:24:00,45.0,45.0,29.47,West,270,0.0,0.0,100,0.01,,,-99.99,Weather View 32 v60,2013-03-05 22:24:00,
2013-03-05 17:29:00,45.0,45.0,29.47,SW,225,0.0,0.0,100,0.01,,,-99.99,Weather View 32 v60,2013-03-05 22:29:00,
2013-03-05 17:39:00,45.0,45.0,29.47,WSW,247,4.0,6.0,100,0.01,,,-99.99,Weather View 32 v60,2013-03-05 22:39:00,
2013-03-05 17:44:00,45.0,45.0,29.47,SW,225,7.0,8.0,100,0.01,,,-99.99,Weather View 32 v60,2013-03-05 22:44:00,
2013-03-05 17:54:00,46.0,46.0,29.48,SW,225,4.0,8.0,100,0.01,,,-99.99,Weather View 32 v60,2013-03-05 22:54:00,
2013-03-05 17:59:00,45.0,45.0,29.48,West,270,9.0,16.0,100,0.01,,,-99.99,Weather View 32 v60,2013-03-05 22:59:00,
2013-03-05 18:09:00,45.0,45.0,29.49,WSW,247,7.0,16.0,100,0.01,,,-99.99,Weather View 32 v60,2013-03-05 23:09:00,
2013-03-05 18:19:00,42.0,42.0,29.50,WSW,247,7.0,20.0,100,0.00,,,-99.99,Weather View 32 v60,2013-03-05 23:19:00,
2013-03-05 18:24:00,41.0,41.0,29.50,West,270,7.0,20.0,100,0.01,,,-99.99,Weather View 32 v60,2013-03-05 23:24:00,
2013-03-05 18:34:00,39.0,39.0,29.54,WSW,247,9.0,20.0,100,0.01,,,-99.99,Weather View 32 v60,2013-03-05 23:34:00,
2013-03-05 18:40:00,38.0,38.0,29.54,SW,225,14.0,20.0,100,0.01,,,-99.99,Weather View 32 v60,2013-03-05 23:40:00,
2013-03-05 18:49:00,37.0,37.0,29.56,WSW,247,6.0,20.0,100,0.01,,,-99.99,Weather View 32 v60,2013-03-05 23:49:00,
2013-03-05 18:54:00,36.0,36.0,29.58,NNW,337,7.0,20.0,100,0.01,,,-99.99,Weather View 32 v60,2013-03-05 23:54:00,
2013-03-05 19:04:00,35.0,35.0,29.58,WSW,247,9.0,20.0,100,0.01,,,-99.99,Weather View 32 v60,2013-03-06 00:04:00,
2013-03-05 19:09:00,34.0,34.0,29.59,West,270,5.0,20.0,100,0.01,,,-99.99,Weather View 32 v60,2013-03-06 00:09:00,
2013-03-05 19:19:00,32.0,32.0,29.61,West,270,6.0,19.0,100,0.01,,,-99.99,Weather View 32 v60,2013-03-06 00:19:00,
2013-03-05 19:29:00,32.0,32.0,29.62,WSW,247,6.0,19.0,100,0.00,,,-99.99,Weather View 32 v60,2013-03-06 00:29:00,
2013-03-05 19:34:00,32.0,32.0,29.64,WSW,247,12.0,19.0,100,0.00,,,-99.99,Weather View 32 v60,2013-03-06 00:34:00,
2013-03-05 19:49:00,31.0,31.0,29.64,WSW,247,7.0,18.0,100,0.00,,,-99.99,Weather View 32 v60,2013-03-06 00:49:00,
2013-03-05 19:59:00,31.0,31.0,29.65,WSW,247,13.0,18.0,100,0.00,,,-99.99,Weather View 32 v60,2013-03-06 00:59:00,
2013-03-05 20:04:00,31.0,31.0,29.65,West,270,7.0,18.0,100,0.00,,,-99.99,Weather View 32 v60,2013-03-06 01:04:00,
2013-03-05 20:14:00,31.0,31.0,29.66,SW,225,6.0,17.0,100,0.00,,,-99.99,Weather View 32 v60,2013-03-06 01:14:00,
2013-03-05 20:24:00,31.0,31.0,29.66,SW,225,8.0,17.0,100,0.00,,,-99.99,Weather View 32 v60,2013-03-06 01:24:00,
2013-03-05 20:29:00,31.0,31.0,29.66,West,270,9.0,17.0,100,0.00,,,-99.99,Weather View 32 v60,2013-03-06 01:29:00,
2013-03-05 20:35:00,30.0,30.0,29.68,West,270,5.0,23.0,100,0.00,,,-99.99,Weather View 32 v60,2013-03-06 01:35:00,
2013-03-05 20:39:00,30.0,30.0,29.66,WSW,247,6.0,16.0,100,0.00,,,-99.99,Weather View 32 v60,2013-03-06 01:39:00,
2013-03-05 20:49:00,30.0,30.0,29.67,SW,225,9.0,16.0,100,0.00,,,-99.99,Weather View 32 v60,2013-03-06 01:49:00,
2013-03-05 20:54:00,31.0,31.0,29.67,West,270,8.0,16.0,100,0.00,,,-99.99,Weather View 32 v60,2013-03-06 01:54:00,
2013-03-05 21:04:00,30.0,30.0,29.68,WSW,247,13.0,23.0,100,0.00,,,-99.99,Weather View 32 v60,2013-03-06 02:04:00,
2013-03-05 21:14:00,30.0,30.0,29.68,SW,225,8.0,23.0,100,0.00,,,-99.99,Weather View 32 v60,2013-03-06 02:14:00,
2013-03-05 21:19:00,30.0,30.0,29.68,West,270,8.0,23.0,100,0.00,,,-99.99,Weather View 32 v60,2013-03-06 02:19:00,
2013-03-05 21:20:00,29.0,29.0,29.70,West,270,7.0,16.0,100,0.00,,,-99.99,Weather View 32 v60,2013-03-06 02:20:00,
2013-03-05 21:29:00,30.0,30.0,29.68,SW,225,7.0,23.0,100,0.00,,,-99.99,Weather View 32 v60,2013-03-06 02:29:00,
2013-03-05 22:09:00,30.0,30.0,29.69,WSW,247,3.0,15.0,100,0.00,,,-99.99,Weather View 32 v60,2013-03-06 03:09:00,
2013-03-05 22:19:00,29.0,29.0,29.70,West,270,7.0,16.0,100,0.00,,,-99.99,Weather View 32 v60,2013-03-06 03:19:00,